createdAt,value
2024-02-17T00:03:24.352Z,10.13
2024-02-17T00:08:26.333Z,9.88
2024-02-17T00:13:27.828Z,9.87
2024-02-17T00:18:29.892Z,9.68
2024-02-17T00:23:32.252Z,9.80
2024-02-17T00:28:33.781Z,9.88
2024-02-17T00:33:36.827Z,10.15
2024-02-17T00:38:39.077Z,10.23
2024-02-17T00:43:40.681Z,10.58
2024-02-17T00:48:42.297Z,10.82
2024-02-17T00:53:44.355Z,10.61
2024-02-17T00:58:45.879Z,10.36
2024-02-17T01:03:47.504Z,10.01
2024-02-17T01:08:49.073Z,9.77
2024-02-17T01:13:50.590Z,9.81
2024-02-17T01:18:52.482Z,9.68
2024-02-17T01:23:54.453Z,9.39
2024-02-17T01:28:55.963Z,9.44
2024-02-17T01:33:57.639Z,9.87
2024-02-17T01:38:59.286Z,10.20
2024-02-17T01:44:00.819Z,9.83
2024-02-17T01:49:02.541Z,10.00
2024-02-17T01:54:04.510Z,10.40
2024-02-17T01:59:06.150Z,10.35
2024-02-17T02:04:07.865Z,10.22
2024-02-17T02:09:09.479Z,10.35
2024-02-17T02:14:14.713Z,10.10
2024-02-17T02:19:16.720Z,9.87
2024-02-17T02:24:18.338Z,9.67
2024-02-17T02:29:20.101Z,9.68
2024-02-17T02:34:21.781Z,9.91
2024-02-17T02:39:23.366Z,9.59
2024-02-17T02:44:24.893Z,9.58
2024-02-17T02:49:26.484Z,10.10
2024-02-17T02:54:28.106Z,10.40
2024-02-17T02:59:29.679Z,10.37
2024-02-17T03:04:31.412Z,10.60
2024-02-17T03:09:33.105Z,10.67
2024-02-17T03:14:35.025Z,10.41
2024-02-17T03:19:36.615Z,10.48
2024-02-17T03:24:38.340Z,10.58
2024-02-17T03:29:39.866Z,10.32
2024-02-17T03:34:42.496Z,10.60
2024-02-17T03:39:44.177Z,10.54
2024-02-17T03:44:46.024Z,10.60
2024-02-17T03:49:47.677Z,10.70
2024-02-17T03:54:49.538Z,10.70
2024-02-17T03:59:51.124Z,10.65
2024-02-17T04:04:52.677Z,10.68
2024-02-17T04:09:54.312Z,10.63
2024-02-17T04:14:58.797Z,10.52
2024-02-17T04:20:00.519Z,10.58
2024-02-17T04:25:02.220Z,10.63
2024-02-17T04:30:04.223Z,10.54
2024-02-17T04:35:06.338Z,10.75
2024-02-17T04:40:08.301Z,10.04
2024-02-17T04:45:10.750Z,10.15
2024-02-17T04:55:20.920Z,10.46
2024-02-17T05:00:22.500Z,10.63
2024-02-17T05:05:24.150Z,10.11
2024-02-17T05:10:25.738Z,9.60
2024-02-17T05:15:27.990Z,9.70
2024-02-17T05:20:29.590Z,9.51
2024-02-17T05:25:31.106Z,9.35
2024-02-17T05:30:33.186Z,9.46
2024-02-17T05:35:34.856Z,9.51
2024-02-17T05:40:36.388Z,9.34
2024-02-17T05:45:37.942Z,9.33
2024-02-17T05:50:39.516Z,9.38
2024-02-17T05:55:41.052Z,9.45
2024-02-17T06:00:42.663Z,9.68
2024-02-17T06:05:44.473Z,9.67
2024-02-17T06:10:46.114Z,9.21
2024-02-17T06:15:47.710Z,9.32
2024-02-17T06:21:07.851Z,9.27
2024-02-17T06:26:28.404Z,9.22
2024-02-17T06:31:29.930Z,9.08
2024-02-17T06:36:31.489Z,9.34
2024-02-17T06:41:33.922Z,9.12
2024-02-17T06:46:35.459Z,9.35
2024-02-17T06:51:37.861Z,9.24
2024-02-17T06:56:39.451Z,9.35
2024-02-17T07:01:40.975Z,9.11
2024-02-17T07:06:44.522Z,9.33
2024-02-17T07:11:46.204Z,9.34
2024-02-17T07:16:48.155Z,9.42
2024-02-17T07:21:49.866Z,9.58
2024-02-17T07:26:54.474Z,9.60
2024-02-17T07:31:56.611Z,9.56
2024-02-17T07:36:59.308Z,9.50
2024-02-17T07:42:01.249Z,9.25
2024-02-17T07:47:03.810Z,9.06
2024-02-17T07:52:05.636Z,9.11
2024-02-17T07:57:07.285Z,9.32
2024-02-17T08:02:08.882Z,9.10
2024-02-17T08:07:11.152Z,9.07
2024-02-17T08:12:13.537Z,9.34
2024-02-17T08:17:15.090Z,9.69
2024-02-17T08:22:16.615Z,9.86
2024-02-17T08:27:18.162Z,9.73
2024-02-17T08:32:19.756Z,9.89
2024-02-17T08:37:21.361Z,9.98
2024-02-17T08:42:22.950Z,10.26
2024-02-17T08:47:24.590Z,10.30
2024-02-17T08:52:26.092Z,10.48
2024-02-17T08:57:27.663Z,10.09
2024-02-17T09:02:29.237Z,10.24
2024-02-17T09:07:30.905Z,10.47
2024-02-17T09:12:32.490Z,10.11
2024-02-17T09:17:34.085Z,10.47
2024-02-17T09:22:36.345Z,10.41
2024-02-17T09:27:37.944Z,10.65
2024-02-17T09:32:39.624Z,10.56
2024-02-17T09:37:45.225Z,10.75
2024-02-17T09:42:48.289Z,10.92
2024-02-17T09:47:49.881Z,10.67
2024-02-17T09:52:51.438Z,11.06
2024-02-17T09:57:55.625Z,10.89
2024-02-17T10:03:00.601Z,10.88
2024-02-17T10:08:04.558Z,10.58
2024-02-17T10:13:07.448Z,10.55
2024-02-17T10:18:09.060Z,10.93
2024-02-17T10:23:10.682Z,10.92
2024-02-17T10:28:12.284Z,11.11
2024-02-17T10:33:16.579Z,10.90
2024-02-17T10:38:18.469Z,10.81
2024-02-17T10:43:19.996Z,11.00
2024-02-17T10:48:21.685Z,11.30
2024-02-17T10:53:32.344Z,11.42
2024-02-17T10:58:35.007Z,11.34
2024-02-17T11:03:38.689Z,11.36
2024-02-17T11:08:40.289Z,11.51
2024-02-17T11:13:41.822Z,11.35
2024-02-17T11:18:54.709Z,11.63
2024-02-17T11:23:58.291Z,11.40
2024-02-17T11:29:01.685Z,11.39
2024-02-17T11:34:04.575Z,11.26
2024-02-17T11:39:06.256Z,11.32
2024-02-17T11:44:07.786Z,11.40
2024-02-17T11:49:12.665Z,11.44
2024-02-17T11:54:14.364Z,11.38
2024-02-17T11:59:17.216Z,11.54
2024-02-17T12:04:18.809Z,11.54
2024-02-17T12:09:20.525Z,11.89
2024-02-17T12:14:24.650Z,11.93
2024-02-17T12:19:26.861Z,11.97
2024-02-17T12:24:28.439Z,11.78
2024-02-17T12:29:29.940Z,11.62
2024-02-17T12:34:34.557Z,11.33
2024-02-17T12:39:36.447Z,11.71
2024-02-17T12:44:38.002Z,11.60
2024-02-17T12:49:40.841Z,11.46
2024-02-17T12:54:42.435Z,11.67
2024-02-17T12:59:43.948Z,11.70
2024-02-17T13:04:45.715Z,11.81
2024-02-17T13:09:47.340Z,11.56
2024-02-17T13:14:50.349Z,11.90
2024-02-17T13:19:52.677Z,11.98
2024-02-17T13:24:54.672Z,11.99
2024-02-17T13:29:56.243Z,12.15
2024-02-17T13:34:57.874Z,12.17
2024-02-17T13:39:59.589Z,11.91
2024-02-17T13:45:01.135Z,12.04
2024-02-17T13:50:13.228Z,12.17
2024-02-17T13:55:17.368Z,12.20
2024-02-17T14:00:19.235Z,12.28
2024-02-17T14:05:20.808Z,12.13
2024-02-17T14:10:22.351Z,11.94
2024-02-17T14:15:23.960Z,11.85
2024-02-17T14:20:25.626Z,11.97
2024-02-17T14:25:27.200Z,12.06
2024-02-17T14:30:30.778Z,11.97
2024-02-17T14:35:32.346Z,11.94
2024-02-17T14:40:33.881Z,12.09
2024-02-17T14:45:35.461Z,12.16
2024-02-17T14:50:37.169Z,11.80
2024-02-17T14:55:38.694Z,11.47
2024-02-17T15:00:43.411Z,11.78
2024-02-17T15:05:45.701Z,11.50
2024-02-17T15:10:47.294Z,11.51
2024-02-17T15:15:50.171Z,11.53
2024-02-17T15:20:51.980Z,11.48
2024-02-17T15:25:53.522Z,11.52
2024-02-17T15:30:56.456Z,11.41
2024-02-17T15:35:58.142Z,11.52
2024-02-17T15:41:00.890Z,11.65
2024-02-17T15:46:02.650Z,11.73
2024-02-17T15:51:04.564Z,11.86
2024-02-17T15:56:11.677Z,11.80
2024-02-17T16:01:13.416Z,11.85
2024-02-17T16:06:15.130Z,11.89
2024-02-17T16:11:16.859Z,11.91
2024-02-17T16:16:18.445Z,11.91
2024-02-17T16:21:20.022Z,11.70
2024-02-17T16:26:22.661Z,11.88
2024-02-17T16:31:24.175Z,11.85
2024-02-17T16:36:25.683Z,11.88
2024-02-17T16:41:27.214Z,11.95
2024-02-17T16:46:28.753Z,11.97
2024-02-17T16:51:32.090Z,11.90
2024-02-17T16:56:35.217Z,11.84
2024-02-17T17:01:36.792Z,11.78
2024-02-17T17:06:38.462Z,11.81
2024-02-17T17:11:40.091Z,11.79
2024-02-17T17:16:41.644Z,11.72
2024-02-17T17:21:43.407Z,11.70
2024-02-17T17:26:50.581Z,11.67
2024-02-17T17:31:52.791Z,11.65
2024-02-17T17:36:54.363Z,11.59
2024-02-17T17:41:56.091Z,11.59
2024-02-17T17:46:57.706Z,11.51
2024-02-17T17:51:59.443Z,11.38
2024-02-17T17:57:01.040Z,11.43
2024-02-17T18:02:02.573Z,11.34
2024-02-17T18:07:04.817Z,11.32
2024-02-17T18:12:07.115Z,11.26
2024-02-17T18:17:08.684Z,11.29
2024-02-17T18:22:10.219Z,11.29
2024-02-17T18:27:11.750Z,11.29
2024-02-17T18:32:14.186Z,11.30
2024-02-17T18:37:15.854Z,11.35
2024-02-17T18:42:17.419Z,11.34
2024-02-17T18:47:19.115Z,11.38
2024-02-17T18:52:23.112Z,11.30
2024-02-17T18:57:24.723Z,11.29
2024-02-17T19:02:26.278Z,11.21
2024-02-17T19:07:27.821Z,11.06
2024-02-17T19:12:29.362Z,11.00
2024-02-17T19:17:30.955Z,10.70
2024-02-17T19:22:32.782Z,10.64
2024-02-17T19:27:35.159Z,10.42
2024-02-17T19:32:36.800Z,10.75
2024-02-17T19:37:38.391Z,10.58
2024-02-17T19:42:39.991Z,10.76
2024-02-17T19:47:42.007Z,10.79
2024-02-17T19:52:43.584Z,10.85
2024-02-17T19:57:48.765Z,10.96
2024-02-17T20:02:53.113Z,11.05
2024-02-17T20:07:56.616Z,11.04
2024-02-17T20:12:59.722Z,10.91
2024-02-17T20:18:01.558Z,11.09
2024-02-17T20:23:03.176Z,11.02
2024-02-17T20:28:05.027Z,11.10
2024-02-17T20:33:06.883Z,11.08
2024-02-17T20:38:08.447Z,10.94
2024-02-17T20:43:09.994Z,10.99
2024-02-17T20:48:11.631Z,10.82
2024-02-17T20:53:13.206Z,10.97
2024-02-17T20:58:14.951Z,11.04
2024-02-17T21:03:16.600Z,11.08
2024-02-17T21:08:19.678Z,10.60
2024-02-17T21:13:21.518Z,10.56
2024-02-17T21:18:23.171Z,10.54
2024-02-17T21:23:24.806Z,10.68
2024-02-17T21:28:26.311Z,10.65
2024-02-17T21:33:27.921Z,10.49
2024-02-17T21:38:30.384Z,10.97
2024-02-17T21:43:32.102Z,11.03
2024-02-17T21:48:34.035Z,10.45
2024-02-17T21:53:35.765Z,11.09
2024-02-17T21:58:37.266Z,10.63
2024-02-17T22:03:38.911Z,10.95
2024-02-17T22:08:40.518Z,10.95
2024-02-17T22:13:42.063Z,10.65
2024-02-17T22:18:43.720Z,10.86
2024-02-17T22:23:45.320Z,10.19
2024-02-17T22:28:46.844Z,10.73
2024-02-17T22:33:48.416Z,10.69
2024-02-17T22:38:49.959Z,10.87
2024-02-17T22:43:51.476Z,10.30
2024-02-17T22:48:53.202Z,10.22
2024-02-17T22:53:54.738Z,10.34
2024-02-17T22:58:56.259Z,10.30
2024-02-17T23:03:57.859Z,10.21
2024-02-17T23:08:59.437Z,10.49
2024-02-17T23:14:00.943Z,10.44
2024-02-17T23:19:02.652Z,10.56
2024-02-17T23:24:04.358Z,10.41
2024-02-17T23:29:06.260Z,10.76
2024-02-17T23:34:07.921Z,10.39
2024-02-17T23:39:09.519Z,10.45
2024-02-17T23:44:11.134Z,10.75
2024-02-17T23:49:12.713Z,10.78
2024-02-17T23:54:14.634Z,10.60
2024-02-17T23:59:16.695Z,10.35
